Terminal Aerodrome Forecast
Issued by NWS

Home | Current Version | Previous Version | Text Only | Print | Product List | Glossary On
Versions: 1 2 3 4 5 6 7 8 9 10 11 12 13 14 15 16
000
FTUS41 KBTV 152300
TAFMSS
TAF
KMSS 152321Z 1600/1624 22004KT P6SM -SHRA BKN050 OVC100
     FM160600 23003KT P6SM -SHRA BKN025 OVC060
     FM160900 24004KT P6SM BKN025 OVC060
     FM161200 25005KT P6SM BKN025
     FM161500 25008KT P6SM SCT045=

USA.gov is the U.S. government's official web portal to all federal, state and local government web resources and services.